sensor_id;sensor_type;location;lat;lon;timestamp;P1;durP1;ratioP1;P2;durP2;ratioP2
38226;SDS011;24026;49.446;8.576;2023-09-12T00:00:08;159.05;;;145.90;;
38226;SDS011;24026;49.446;8.576;2023-09-12T00:02:29;157.27;;;144.55;;
38226;SDS011;24026;49.446;8.576;2023-09-12T00:04:50;157.88;;;144.48;;
38226;SDS011;24026;49.446;8.576;2023-09-12T00:07:10;158.20;;;145.27;;
38226;SDS011;24026;49.446;8.576;2023-09-12T00:09:31;157.88;;;144.95;;
38226;SDS011;24026;49.446;8.576;2023-09-12T00:11:51;157.98;;;145.05;;
38226;SDS011;24026;49.446;8.576;2023-09-12T00:14:14;156.38;;;143.50;;
38226;SDS011;24026;49.446;8.576;2023-09-12T00:16:36;158.32;;;145.23;;
38226;SDS011;24026;49.446;8.576;2023-09-12T00:18:56;158.02;;;145.07;;
38226;SDS011;24026;49.446;8.576;2023-09-12T00:21:17;158.38;;;145.40;;
38226;SDS011;24026;49.446;8.576;2023-09-12T00:23:37;159.23;;;146.05;;
38226;SDS011;24026;49.446;8.576;2023-09-12T00:25:57;156.85;;;143.90;;
38226;SDS011;24026;49.446;8.576;2023-09-12T00:28:18;156.73;;;143.82;;
38226;SDS011;24026;49.446;8.576;2023-09-12T00:30:39;158.73;;;145.68;;
38226;SDS011;24026;49.446;8.576;2023-09-12T00:33:00;158.35;;;145.30;;
38226;SDS011;24026;49.446;8.576;2023-09-12T00:35:20;156.20;;;143.27;;
38226;SDS011;24026;49.446;8.576;2023-09-12T00:37:40;158.57;;;145.52;;
38226;SDS011;24026;49.446;8.576;2023-09-12T00:40:01;157.20;;;144.23;;
38226;SDS011;24026;49.446;8.576;2023-09-12T00:42:21;155.75;;;142.98;;
38226;SDS011;24026;49.446;8.576;2023-09-12T00:44:45;160.30;;;147.00;;
38226;SDS011;24026;49.446;8.576;2023-09-12T00:47:05;157.82;;;144.85;;
38226;SDS011;24026;49.446;8.576;2023-09-12T00:49:26;158.93;;;145.93;;
38226;SDS011;24026;49.446;8.576;2023-09-12T00:51:49;156.45;;;143.48;;
38226;SDS011;24026;49.446;8.576;2023-09-12T00:54:10;157.35;;;144.43;;
38226;SDS011;24026;49.446;8.576;2023-09-12T00:56:31;158.10;;;145.27;;
38226;SDS011;24026;49.446;8.576;2023-09-12T00:58:52;159.23;;;145.95;;
38226;SDS011;24026;49.446;8.576;2023-09-12T01:01:13;158.10;;;144.85;;
38226;SDS011;24026;49.446;8.576;2023-09-12T01:03:33;159.55;;;146.57;;
38226;SDS011;24026;49.446;8.576;2023-09-12T01:05:55;156.43;;;143.52;;
38226;SDS011;24026;49.446;8.576;2023-09-12T01:08:18;157.13;;;144.23;;
38226;SDS011;24026;49.446;8.576;2023-09-12T01:10:38;159.98;;;146.88;;
38226;SDS011;24026;49.446;8.576;2023-09-12T01:13:00;158.63;;;145.43;;
38226;SDS011;24026;49.446;8.576;2023-09-12T01:15:20;158.57;;;145.68;;
38226;SDS011;24026;49.446;8.576;2023-09-12T01:17:44;156.90;;;144.05;;
38226;SDS011;24026;49.446;8.576;2023-09-12T01:20:05;157.52;;;144.32;;
38226;SDS011;24026;49.446;8.576;2023-09-12T01:29:43;157.48;;;144.43;;
38226;SDS011;24026;49.446;8.576;2023-09-12T01:32:06;156.25;;;143.20;;
38226;SDS011;24026;49.446;8.576;2023-09-12T01:34:26;157.98;;;144.68;;
38226;SDS011;24026;49.446;8.576;2023-09-12T01:36:47;157.60;;;144.60;;
38226;SDS011;24026;49.446;8.576;2023-09-12T01:39:07;157.15;;;144.20;;
38226;SDS011;24026;49.446;8.576;2023-09-12T01:41:28;156.75;;;143.75;;
38226;SDS011;24026;49.446;8.576;2023-09-12T01:43:52;155.90;;;143.05;;
38226;SDS011;24026;49.446;8.576;2023-09-12T01:46:14;156.40;;;143.48;;
38226;SDS011;24026;49.446;8.576;2023-09-12T01:48:37;156.55;;;143.68;;
38226;SDS011;24026;49.446;8.576;2023-09-12T01:50:58;156.65;;;143.82;;
38226;SDS011;24026;49.446;8.576;2023-09-12T01:53:19;156.82;;;143.98;;
38226;SDS011;24026;49.446;8.576;2023-09-12T01:55:40;156.93;;;143.73;;
38226;SDS011;24026;49.446;8.576;2023-09-12T01:58:02;156.43;;;143.48;;
38226;SDS011;24026;49.446;8.576;2023-09-12T02:00:23;155.10;;;142.27;;
38226;SDS011;24026;49.446;8.576;2023-09-12T02:02:44;156.90;;;144.05;;
38226;SDS011;24026;49.446;8.576;2023-09-12T02:07:24;155.77;;;143.00;;
38226;SDS011;24026;49.446;8.576;2023-09-12T02:09:46;156.55;;;143.65;;
38226;SDS011;24026;49.446;8.576;2023-09-12T02:12:07;157.02;;;144.02;;
38226;SDS011;24026;49.446;8.576;2023-09-12T02:14:29;158.20;;;145.10;;
38226;SDS011;24026;49.446;8.576;2023-09-12T02:16:49;157.13;;;144.18;;
38226;SDS011;24026;49.446;8.576;2023-09-12T02:19:09;154.95;;;142.13;;
38226;SDS011;24026;49.446;8.576;2023-09-12T02:21:30;155.18;;;142.20;;
38226;SDS011;24026;49.446;8.576;2023-09-12T02:23:50;157.77;;;144.93;;
38226;SDS011;24026;49.446;8.576;2023-09-12T02:26:12;156.93;;;143.82;;
38226;SDS011;24026;49.446;8.576;2023-09-12T02:28:32;155.90;;;142.98;;
38226;SDS011;24026;49.446;8.576;2023-09-12T02:30:52;156.75;;;143.73;;
38226;SDS011;24026;49.446;8.576;2023-09-12T02:33:13;155.77;;;142.77;;
38226;SDS011;24026;49.446;8.576;2023-09-12T02:35:33;157.48;;;144.48;;
38226;SDS011;24026;49.446;8.576;2023-09-12T02:37:53;157.60;;;144.57;;
38226;SDS011;24026;49.446;8.576;2023-09-12T02:40:14;157.20;;;144.00;;
38226;SDS011;24026;49.446;8.576;2023-09-12T02:42:36;155.63;;;142.70;;
38226;SDS011;24026;49.446;8.576;2023-09-12T02:44:56;157.05;;;143.90;;
38226;SDS011;24026;49.446;8.576;2023-09-12T02:47:16;156.85;;;143.63;;
38226;SDS011;24026;49.446;8.576;2023-09-12T02:49:37;156.70;;;143.60;;
38226;SDS011;24026;49.446;8.576;2023-09-12T02:51:57;156.57;;;143.18;;
38226;SDS011;24026;49.446;8.576;2023-09-12T02:54:17;157.65;;;144.65;;
38226;SDS011;24026;49.446;8.576;2023-09-12T02:56:38;156.93;;;144.00;;
38226;SDS011;24026;49.446;8.576;2023-09-12T02:58:58;157.40;;;144.48;;
38226;SDS011;24026;49.446;8.576;2023-09-12T03:01:19;158.70;;;145.20;;
38226;SDS011;24026;49.446;8.576;2023-09-12T03:03:40;157.25;;;144.10;;
38226;SDS011;24026;49.446;8.576;2023-09-12T03:06:00;158.00;;;145.10;;
38226;SDS011;24026;49.446;8.576;2023-09-12T03:08:22;157.55;;;144.60;;
38226;SDS011;24026;49.446;8.576;2023-09-12T03:10:43;158.52;;;145.40;;
38226;SDS011;24026;49.446;8.576;2023-09-12T03:13:03;155.93;;;142.93;;
38226;SDS011;24026;49.446;8.576;2023-09-12T03:15:23;157.30;;;144.23;;
38226;SDS011;24026;49.446;8.576;2023-09-12T03:17:44;157.63;;;144.57;;
38226;SDS011;24026;49.446;8.576;2023-09-12T03:20:05;157.10;;;144.10;;
38226;SDS011;24026;49.446;8.576;2023-09-12T03:22:28;156.38;;;143.13;;
38226;SDS011;24026;49.446;8.576;2023-09-12T03:24:48;158.00;;;145.00;;
38226;SDS011;24026;49.446;8.576;2023-09-12T03:27:09;156.90;;;143.52;;
38226;SDS011;24026;49.446;8.576;2023-09-12T03:29:29;156.10;;;143.10;;
38226;SDS011;24026;49.446;8.576;2023-09-12T03:31:49;157.30;;;144.02;;
38226;SDS011;24026;49.446;8.576;2023-09-12T03:34:10;158.43;;;145.30;;
38226;SDS011;24026;49.446;8.576;2023-09-12T03:36:30;157.80;;;144.88;;
38226;SDS011;24026;49.446;8.576;2023-09-12T03:38:51;156.13;;;143.18;;
38226;SDS011;24026;49.446;8.576;2023-09-12T03:41:11;156.07;;;143.00;;
38226;SDS011;24026;49.446;8.576;2023-09-12T03:43:32;157.93;;;144.82;;
38226;SDS011;24026;49.446;8.576;2023-09-12T03:45:53;157.80;;;144.85;;
38226;SDS011;24026;49.446;8.576;2023-09-12T03:48:14;157.48;;;144.45;;
38226;SDS011;24026;49.446;8.576;2023-09-12T03:50:34;157.82;;;144.75;;
38226;SDS011;24026;49.446;8.576;2023-09-12T03:52:55;157.27;;;144.38;;
38226;SDS011;24026;49.446;8.576;2023-09-12T03:55:15;157.30;;;144.25;;
38226;SDS011;24026;49.446;8.576;2023-09-12T03:57:36;158.57;;;145.50;;
38226;SDS011;24026;49.446;8.576;2023-09-12T03:59:56;156.45;;;143.43;;
38226;SDS011;24026;49.446;8.576;2023-09-12T04:02:17;157.05;;;144.10;;
38226;SDS011;24026;49.446;8.576;2023-09-12T04:04:37;157.75;;;144.80;;
38226;SDS011;24026;49.446;8.576;2023-09-12T04:06:58;158.38;;;145.27;;
38226;SDS011;24026;49.446;8.576;2023-09-12T04:09:18;158.57;;;145.48;;
38226;SDS011;24026;49.446;8.576;2023-09-12T04:11:39;158.05;;;145.07;;
38226;SDS011;24026;49.446;8.576;2023-09-12T04:13:59;157.93;;;144.70;;
38226;SDS011;24026;49.446;8.576;2023-09-12T04:16:19;157.75;;;144.65;;
38226;SDS011;24026;49.446;8.576;2023-09-12T04:18:40;158.52;;;145.35;;
38226;SDS011;24026;49.446;8.576;2023-09-12T04:21:00;159.10;;;145.70;;
38226;SDS011;24026;49.446;8.576;2023-09-12T04:23:20;157.90;;;144.82;;
38226;SDS011;24026;49.446;8.576;2023-09-12T04:25:41;158.85;;;145.52;;
38226;SDS011;24026;49.446;8.576;2023-09-12T04:28:03;159.57;;;146.38;;
38226;SDS011;24026;49.446;8.576;2023-09-12T04:30:24;157.98;;;144.98;;
38226;SDS011;24026;49.446;8.576;2023-09-12T04:32:44;158.32;;;145.35;;
38226;SDS011;24026;49.446;8.576;2023-09-12T04:35:05;158.63;;;145.40;;
38226;SDS011;24026;49.446;8.576;2023-09-12T04:37:27;157.85;;;144.88;;
38226;SDS011;24026;49.446;8.576;2023-09-12T04:39:48;158.23;;;145.23;;
38226;SDS011;24026;49.446;8.576;2023-09-12T04:42:08;158.07;;;144.88;;
38226;SDS011;24026;49.446;8.576;2023-09-12T04:44:28;158.75;;;145.68;;
38226;SDS011;24026;49.446;8.576;2023-09-12T04:46:49;159.15;;;146.10;;
38226;SDS011;24026;49.446;8.576;2023-09-12T04:49:09;157.77;;;144.68;;
38226;SDS011;24026;49.446;8.576;2023-09-12T04:51:30;157.45;;;144.38;;
38226;SDS011;24026;49.446;8.576;2023-09-12T04:53:54;160.40;;;147.18;;
38226;SDS011;24026;49.446;8.576;2023-09-12T04:56:18;159.25;;;146.05;;
38226;SDS011;24026;49.446;8.576;2023-09-12T04:58:40;157.07;;;143.93;;
38226;SDS011;24026;49.446;8.576;2023-09-12T05:01:01;157.77;;;144.70;;
38226;SDS011;24026;49.446;8.576;2023-09-12T05:03:23;156.50;;;143.35;;
38226;SDS011;24026;49.446;8.576;2023-09-12T05:05:49;161.30;;;147.80;;
38226;SDS011;24026;49.446;8.576;2023-09-12T05:08:10;158.18;;;144.98;;
38226;SDS011;24026;49.446;8.576;2023-09-12T05:10:31;159.32;;;146.25;;
38226;SDS011;24026;49.446;8.576;2023-09-12T05:12:51;160.55;;;147.07;;
38226;SDS011;24026;49.446;8.576;2023-09-12T05:15:13;163.65;;;150.07;;
38226;SDS011;24026;49.446;8.576;2023-09-12T05:17:33;162.13;;;147.93;;
38226;SDS011;24026;49.446;8.576;2023-09-12T05:19:54;164.20;;;150.43;;
38226;SDS011;24026;49.446;8.576;2023-09-12T05:22:15;163.23;;;149.27;;
38226;SDS011;24026;49.446;8.576;2023-09-12T05:24:36;161.55;;;147.80;;
38226;SDS011;24026;49.446;8.576;2023-09-12T05:26:56;165.45;;;151.27;;
38226;SDS011;24026;49.446;8.576;2023-09-12T05:29:16;163.80;;;149.68;;
38226;SDS011;24026;49.446;8.576;2023-09-12T05:31:37;164.73;;;150.48;;
38226;SDS011;24026;49.446;8.576;2023-09-12T05:33:57;166.57;;;151.95;;
38226;SDS011;24026;49.446;8.576;2023-09-12T05:36:18;167.05;;;152.27;;
38226;SDS011;24026;49.446;8.576;2023-09-12T05:38:38;175.00;;;159.32;;
38226;SDS011;24026;49.446;8.576;2023-09-12T05:40:58;173.40;;;157.77;;
38226;SDS011;24026;49.446;8.576;2023-09-12T05:43:19;170.80;;;155.18;;
38226;SDS011;24026;49.446;8.576;2023-09-12T05:45:39;173.85;;;158.60;;
38226;SDS011;24026;49.446;8.576;2023-09-12T05:47:59;175.32;;;159.13;;
38226;SDS011;24026;49.446;8.576;2023-09-12T05:50:20;170.75;;;154.88;;
38226;SDS011;24026;49.446;8.576;2023-09-12T05:52:40;177.43;;;160.57;;
38226;SDS011;24026;49.446;8.576;2023-09-12T05:55:02;179.30;;;162.38;;
38226;SDS011;24026;49.446;8.576;2023-09-12T05:57:24;176.80;;;160.75;;
38226;SDS011;24026;49.446;8.576;2023-09-12T05:59:45;174.52;;;158.45;;
38226;SDS011;24026;49.446;8.576;2023-09-12T06:02:05;177.48;;;161.63;;
38226;SDS011;24026;49.446;8.576;2023-09-12T06:04:30;176.93;;;161.17;;
38226;SDS011;24026;49.446;8.576;2023-09-12T06:06:51;179.57;;;163.68;;
38226;SDS011;24026;49.446;8.576;2023-09-12T06:09:13;175.27;;;158.88;;
38226;SDS011;24026;49.446;8.576;2023-09-12T06:11:33;174.20;;;158.38;;
38226;SDS011;24026;49.446;8.576;2023-09-12T06:13:54;173.43;;;156.77;;
38226;SDS011;24026;49.446;8.576;2023-09-12T06:16:17;180.65;;;164.35;;
38226;SDS011;24026;49.446;8.576;2023-09-12T06:18:37;175.65;;;159.75;;
38226;SDS011;24026;49.446;8.576;2023-09-12T06:20:59;176.85;;;160.95;;
38226;SDS011;24026;49.446;8.576;2023-09-12T06:23:28;176.48;;;160.38;;
38226;SDS011;24026;49.446;8.576;2023-09-12T06:25:50;174.30;;;159.50;;
38226;SDS011;24026;49.446;8.576;2023-09-12T06:28:11;173.57;;;158.88;;
38226;SDS011;24026;49.446;8.576;2023-09-12T06:30:31;173.65;;;158.52;;
38226;SDS011;24026;49.446;8.576;2023-09-12T06:32:52;169.85;;;154.32;;
38226;SDS011;24026;49.446;8.576;2023-09-12T06:35:12;168.98;;;154.05;;
38226;SDS011;24026;49.446;8.576;2023-09-12T06:37:34;178.98;;;162.68;;
38226;SDS011;24026;49.446;8.576;2023-09-12T06:39:54;176.27;;;160.32;;
38226;SDS011;24026;49.446;8.576;2023-09-12T06:42:15;176.43;;;159.80;;
38226;SDS011;24026;49.446;8.576;2023-09-12T06:44:35;173.45;;;157.02;;
38226;SDS011;24026;49.446;8.576;2023-09-12T06:46:57;175.20;;;158.77;;
38226;SDS011;24026;49.446;8.576;2023-09-12T06:49:18;175.45;;;159.02;;
38226;SDS011;24026;49.446;8.576;2023-09-12T06:51:38;171.68;;;155.93;;
38226;SDS011;24026;49.446;8.576;2023-09-12T06:53:59;171.90;;;155.95;;
38226;SDS011;24026;49.446;8.576;2023-09-12T06:56:20;171.48;;;156.18;;
38226;SDS011;24026;49.446;8.576;2023-09-12T06:58:41;169.95;;;154.63;;
38226;SDS011;24026;49.446;8.576;2023-09-12T07:01:05;170.57;;;155.32;;
38226;SDS011;24026;49.446;8.576;2023-09-12T07:03:27;170.02;;;155.23;;
38226;SDS011;24026;49.446;8.576;2023-09-12T07:05:48;169.15;;;154.48;;
38226;SDS011;24026;49.446;8.576;2023-09-12T07:08:10;168.05;;;152.93;;
38226;SDS011;24026;49.446;8.576;2023-09-12T07:10:30;166.80;;;152.30;;
38226;SDS011;24026;49.446;8.576;2023-09-12T07:12:52;171.07;;;155.73;;
38226;SDS011;24026;49.446;8.576;2023-09-12T07:15:16;167.32;;;152.85;;
38226;SDS011;24026;49.446;8.576;2023-09-12T07:17:36;167.70;;;152.73;;
38226;SDS011;24026;49.446;8.576;2023-09-12T07:19:57;168.65;;;153.85;;
38226;SDS011;24026;49.446;8.576;2023-09-12T07:22:17;167.98;;;153.63;;
38226;SDS011;24026;49.446;8.576;2023-09-12T07:24:38;165.80;;;151.75;;
38226;SDS011;24026;49.446;8.576;2023-09-12T07:26:58;172.25;;;157.07;;
38226;SDS011;24026;49.446;8.576;2023-09-12T07:29:18;168.63;;;153.65;;
38226;SDS011;24026;49.446;8.576;2023-09-12T07:31:40;167.75;;;153.18;;
38226;SDS011;24026;49.446;8.576;2023-09-12T07:34:01;163.90;;;149.38;;
38226;SDS011;24026;49.446;8.576;2023-09-12T07:36:21;167.13;;;152.50;;
38226;SDS011;24026;49.446;8.576;2023-09-12T07:38:41;164.23;;;149.80;;
38226;SDS011;24026;49.446;8.576;2023-09-12T07:41:03;164.93;;;150.55;;
38226;SDS011;24026;49.446;8.576;2023-09-12T07:43:25;162.70;;;147.38;;
38226;SDS011;24026;49.446;8.576;2023-09-12T07:45:46;163.27;;;147.45;;
38226;SDS011;24026;49.446;8.576;2023-09-12T07:48:07;165.18;;;149.82;;
38226;SDS011;24026;49.446;8.576;2023-09-12T07:50:32;163.38;;;147.65;;
38226;SDS011;24026;49.446;8.576;2023-09-12T07:52:54;160.55;;;145.40;;
38226;SDS011;24026;49.446;8.576;2023-09-12T07:55:15;165.82;;;151.55;;
38226;SDS011;24026;49.446;8.576;2023-09-12T07:57:35;160.38;;;145.93;;
38226;SDS011;24026;49.446;8.576;2023-09-12T07:59:56;164.35;;;149.10;;
38226;SDS011;24026;49.446;8.576;2023-09-12T08:02:17;163.25;;;148.95;;
38226;SDS011;24026;49.446;8.576;2023-09-12T08:04:38;163.63;;;149.13;;
38226;SDS011;24026;49.446;8.576;2023-09-12T08:06:58;166.38;;;151.77;;
38226;SDS011;24026;49.446;8.576;2023-09-12T08:09:20;165.00;;;150.30;;
38226;SDS011;24026;49.446;8.576;2023-09-12T08:11:41;161.95;;;147.82;;
38226;SDS011;24026;49.446;8.576;2023-09-12T08:14:02;165.15;;;149.88;;
38226;SDS011;24026;49.446;8.576;2023-09-12T08:16:26;166.55;;;152.45;;
38226;SDS011;24026;49.446;8.576;2023-09-12T08:18:48;160.10;;;146.13;;
38226;SDS011;24026;49.446;8.576;2023-09-12T08:21:09;159.48;;;145.50;;
38226;SDS011;24026;49.446;8.576;2023-09-12T08:23:30;164.75;;;150.55;;
38226;SDS011;24026;49.446;8.576;2023-09-12T08:25:50;160.88;;;147.27;;
38226;SDS011;24026;49.446;8.576;2023-09-12T08:28:13;166.63;;;152.60;;
38226;SDS011;24026;49.446;8.576;2023-09-12T08:30:34;165.50;;;151.70;;
38226;SDS011;24026;49.446;8.576;2023-09-12T08:32:56;162.95;;;148.93;;
38226;SDS011;24026;49.446;8.576;2023-09-12T08:35:18;172.57;;;157.55;;
38226;SDS011;24026;49.446;8.576;2023-09-12T08:37:43;180.52;;;163.63;;
38226;SDS011;24026;49.446;8.576;2023-09-12T08:40:08;177.82;;;161.70;;
38226;SDS011;24026;49.446;8.576;2023-09-12T08:42:30;165.30;;;151.32;;
38226;SDS011;24026;49.446;8.576;2023-09-12T08:44:52;169.00;;;153.90;;
38226;SDS011;24026;49.446;8.576;2023-09-12T08:47:14;162.23;;;148.07;;
38226;SDS011;24026;49.446;8.576;2023-09-12T08:49:38;163.85;;;149.85;;
38226;SDS011;24026;49.446;8.576;2023-09-12T08:52:06;168.13;;;153.68;;
38226;SDS011;24026;49.446;8.576;2023-09-12T08:54:28;170.10;;;155.35;;
38226;SDS011;24026;49.446;8.576;2023-09-12T08:56:49;168.23;;;153.82;;
38226;SDS011;24026;49.446;8.576;2023-09-12T08:59:17;165.57;;;151.45;;
38226;SDS011;24026;49.446;8.576;2023-09-12T09:01:37;164.90;;;151.13;;
38226;SDS011;24026;49.446;8.576;2023-09-12T09:04:01;164.90;;;151.07;;
38226;SDS011;24026;49.446;8.576;2023-09-12T09:06:22;165.52;;;151.60;;
38226;SDS011;24026;49.446;8.576;2023-09-12T09:08:43;164.98;;;150.45;;
38226;SDS011;24026;49.446;8.576;2023-09-12T09:11:05;164.65;;;150.90;;
38226;SDS011;24026;49.446;8.576;2023-09-12T09:13:26;165.52;;;151.65;;
38226;SDS011;24026;49.446;8.576;2023-09-12T09:15:47;164.02;;;150.07;;
38226;SDS011;24026;49.446;8.576;2023-09-12T09:18:07;162.35;;;148.80;;
38226;SDS011;24026;49.446;8.576;2023-09-12T09:20:33;164.15;;;150.23;;
38226;SDS011;24026;49.446;8.576;2023-09-12T09:25:17;166.02;;;152.48;;
38226;SDS011;24026;49.446;8.576;2023-09-12T09:27:38;172.65;;;157.77;;
38226;SDS011;24026;49.446;8.576;2023-09-12T09:29:58;166.73;;;152.57;;
38226;SDS011;24026;49.446;8.576;2023-09-12T09:32:19;172.45;;;157.80;;
38226;SDS011;24026;49.446;8.576;2023-09-12T09:34:41;174.07;;;159.48;;
38226;SDS011;24026;49.446;8.576;2023-09-12T09:37:02;179.93;;;164.93;;
38226;SDS011;24026;49.446;8.576;2023-09-12T09:39:23;183.90;;;168.68;;
38226;SDS011;24026;49.446;8.576;2023-09-12T09:41:49;174.75;;;160.13;;
38226;SDS011;24026;49.446;8.576;2023-09-12T09:44:16;173.25;;;158.85;;
38226;SDS011;24026;49.446;8.576;2023-09-12T09:46:37;176.30;;;161.60;;
38226;SDS011;24026;49.446;8.576;2023-09-12T09:48:58;180.68;;;165.68;;
38226;SDS011;24026;49.446;8.576;2023-09-12T09:51:22;179.87;;;163.73;;
38226;SDS011;24026;49.446;8.576;2023-09-12T09:53:42;180.45;;;165.23;;
38226;SDS011;24026;49.446;8.576;2023-09-12T09:56:10;182.88;;;167.32;;
38226;SDS011;24026;49.446;8.576;2023-09-12T09:58:34;180.00;;;164.65;;
38226;SDS011;24026;49.446;8.576;2023-09-12T10:00:55;179.75;;;164.50;;
38226;SDS011;24026;49.446;8.576;2023-09-12T10:03:17;178.40;;;163.65;;
38226;SDS011;24026;49.446;8.576;2023-09-12T10:05:45;172.18;;;157.55;;
38226;SDS011;24026;49.446;8.576;2023-09-12T10:08:11;178.88;;;163.40;;
38226;SDS011;24026;49.446;8.576;2023-09-12T10:10:37;177.32;;;162.23;;
38226;SDS011;24026;49.446;8.576;2023-09-12T10:12:58;170.80;;;156.50;;
38226;SDS011;24026;49.446;8.576;2023-09-12T10:15:28;170.32;;;155.65;;
38226;SDS011;24026;49.446;8.576;2023-09-12T10:17:53;169.23;;;155.27;;
38226;SDS011;24026;49.446;8.576;2023-09-12T10:20:20;168.18;;;154.35;;
38226;SDS011;24026;49.446;8.576;2023-09-12T10:25:29;167.52;;;153.77;;
38226;SDS011;24026;49.446;8.576;2023-09-12T10:27:50;169.60;;;155.93;;
38226;SDS011;24026;49.446;8.576;2023-09-12T10:30:14;166.73;;;153.32;;
38226;SDS011;24026;49.446;8.576;2023-09-12T10:32:36;165.93;;;152.32;;
38226;SDS011;24026;49.446;8.576;2023-09-12T10:34:58;165.80;;;152.27;;
38226;SDS011;24026;49.446;8.576;2023-09-12T10:37:26;166.90;;;153.40;;
38226;SDS011;24026;49.446;8.576;2023-09-12T10:39:49;166.73;;;153.18;;
38226;SDS011;24026;49.446;8.576;2023-09-12T10:42:12;165.80;;;152.10;;
38226;SDS011;24026;49.446;8.576;2023-09-12T10:44:33;166.85;;;153.38;;
38226;SDS011;24026;49.446;8.576;2023-09-12T10:46:54;167.50;;;153.73;;
38226;SDS011;24026;49.446;8.576;2023-09-12T10:49:15;167.15;;;153.55;;
38226;SDS011;24026;49.446;8.576;2023-09-12T10:51:39;167.68;;;153.93;;
38226;SDS011;24026;49.446;8.576;2023-09-12T10:54:01;167.18;;;153.73;;
38226;SDS011;24026;49.446;8.576;2023-09-12T10:56:21;168.32;;;155.05;;
38226;SDS011;24026;49.446;8.576;2023-09-12T10:59:15;167.00;;;153.52;;
38226;SDS011;24026;49.446;8.576;2023-09-12T11:01:33;166.20;;;152.82;;
38226;SDS011;24026;49.446;8.576;2023-09-12T11:03:54;180.85;;;166.45;;
38226;SDS011;24026;49.446;8.576;2023-09-12T11:06:21;174.35;;;160.50;;
38226;SDS011;24026;49.446;8.576;2023-09-12T11:11:36;166.45;;;152.95;;
38226;SDS011;24026;49.446;8.576;2023-09-12T11:14:03;169.90;;;156.45;;
38226;SDS011;24026;49.446;8.576;2023-09-12T11:16:24;168.40;;;155.00;;
38226;SDS011;24026;49.446;8.576;2023-09-12T11:21:36;174.82;;;160.80;;
38226;SDS011;24026;49.446;8.576;2023-09-12T11:23:57;170.88;;;157.25;;
38226;SDS011;24026;49.446;8.576;2023-09-12T11:26:18;174.43;;;160.40;;
38226;SDS011;24026;49.446;8.576;2023-09-12T11:28:40;171.68;;;157.95;;
38226;SDS011;24026;49.446;8.576;2023-09-12T11:31:02;171.52;;;157.93;;
38226;SDS011;24026;49.446;8.576;2023-09-12T11:33:24;172.35;;;158.40;;
38226;SDS011;24026;49.446;8.576;2023-09-12T11:35:46;171.65;;;157.88;;
38226;SDS011;24026;49.446;8.576;2023-09-12T11:38:11;178.27;;;162.77;;
38226;SDS011;24026;49.446;8.576;2023-09-12T11:42:52;180.25;;;165.18;;
38226;SDS011;24026;49.446;8.576;2023-09-12T11:45:13;185.27;;;169.88;;
38226;SDS011;24026;49.446;8.576;2023-09-12T11:47:33;184.48;;;169.00;;
38226;SDS011;24026;49.446;8.576;2023-09-12T11:49:54;184.63;;;169.43;;
38226;SDS011;24026;49.446;8.576;2023-09-12T11:52:15;185.90;;;170.23;;
38226;SDS011;24026;49.446;8.576;2023-09-12T11:54:40;186.23;;;170.38;;
38226;SDS011;24026;49.446;8.576;2023-09-12T11:57:02;185.63;;;170.38;;
38226;SDS011;24026;49.446;8.576;2023-09-12T11:59:23;192.45;;;176.70;;
38226;SDS011;24026;49.446;8.576;2023-09-12T12:01:43;188.80;;;173.18;;
38226;SDS011;24026;49.446;8.576;2023-09-12T12:04:04;189.02;;;173.40;;
38226;SDS011;24026;49.446;8.576;2023-09-12T12:06:24;188.73;;;173.32;;
38226;SDS011;24026;49.446;8.576;2023-09-12T12:08:45;186.07;;;171.10;;
38226;SDS011;24026;49.446;8.576;2023-09-12T12:11:06;183.75;;;168.95;;
38226;SDS011;24026;49.446;8.576;2023-09-12T12:13:27;183.63;;;168.40;;
38226;SDS011;24026;49.446;8.576;2023-09-12T12:15:50;183.67;;;168.27;;
38226;SDS011;24026;49.446;8.576;2023-09-12T12:18:11;181.55;;;166.90;;
38226;SDS011;24026;49.446;8.576;2023-09-12T12:20:32;180.27;;;165.77;;
38226;SDS011;24026;49.446;8.576;2023-09-12T12:22:53;181.10;;;166.68;;
38226;SDS011;24026;49.446;8.576;2023-09-12T12:25:13;176.77;;;162.50;;
38226;SDS011;24026;49.446;8.576;2023-09-12T12:27:41;183.68;;;168.32;;
38226;SDS011;24026;49.446;8.576;2023-09-12T12:30:02;187.73;;;172.00;;
38226;SDS011;24026;49.446;8.576;2023-09-12T12:32:22;193.75;;;177.52;;
38226;SDS011;24026;49.446;8.576;2023-09-12T12:34:47;185.73;;;169.57;;
38226;SDS011;24026;49.446;8.576;2023-09-12T12:37:09;186.70;;;170.88;;
38226;SDS011;24026;49.446;8.576;2023-09-12T12:39:31;189.00;;;173.05;;
38226;SDS011;24026;49.446;8.576;2023-09-12T12:41:56;195.02;;;178.68;;
38226;SDS011;24026;49.446;8.576;2023-09-12T12:44:16;188.85;;;172.77;;
38226;SDS011;24026;49.446;8.576;2023-09-12T12:46:47;187.05;;;171.60;;
38226;SDS011;24026;49.446;8.576;2023-09-12T12:49:14;182.18;;;167.07;;
38226;SDS011;24026;49.446;8.576;2023-09-12T12:51:36;183.88;;;167.98;;
38226;SDS011;24026;49.446;8.576;2023-09-12T12:54:03;181.57;;;166.57;;
38226;SDS011;24026;49.446;8.576;2023-09-12T12:56:28;183.07;;;167.88;;
38226;SDS011;24026;49.446;8.576;2023-09-12T13:01:11;181.32;;;166.75;;
38226;SDS011;24026;49.446;8.576;2023-09-12T13:03:31;181.98;;;167.13;;
38226;SDS011;24026;49.446;8.576;2023-09-12T13:05:51;181.43;;;166.60;;
38226;SDS011;24026;49.446;8.576;2023-09-12T13:08:12;180.95;;;166.07;;
38226;SDS011;24026;49.446;8.576;2023-09-12T13:10:32;185.77;;;170.07;;
38226;SDS011;24026;49.446;8.576;2023-09-12T13:12:53;189.77;;;173.63;;
38226;SDS011;24026;49.446;8.576;2023-09-12T13:15:13;186.88;;;171.70;;
38226;SDS011;24026;49.446;8.576;2023-09-12T13:17:34;188.00;;;172.60;;
38226;SDS011;24026;49.446;8.576;2023-09-12T13:19:55;186.85;;;170.90;;
38226;SDS011;24026;49.446;8.576;2023-09-12T13:22:16;186.95;;;171.27;;
38226;SDS011;24026;49.446;8.576;2023-09-12T13:24:36;189.13;;;173.38;;
38226;SDS011;24026;49.446;8.576;2023-09-12T13:26:56;191.10;;;175.45;;
38226;SDS011;24026;49.446;8.576;2023-09-12T13:29:17;184.80;;;169.73;;
38226;SDS011;24026;49.446;8.576;2023-09-12T13:31:37;186.35;;;171.23;;
38226;SDS011;24026;49.446;8.576;2023-09-12T13:33:58;186.25;;;171.52;;
38226;SDS011;24026;49.446;8.576;2023-09-12T13:36:18;182.73;;;167.43;;
38226;SDS011;24026;49.446;8.576;2023-09-12T13:38:38;180.77;;;166.43;;
38226;SDS011;24026;49.446;8.576;2023-09-12T13:40:59;181.93;;;167.38;;
38226;SDS011;24026;49.446;8.576;2023-09-12T13:43:19;181.75;;;167.32;;
38226;SDS011;24026;49.446;8.576;2023-09-12T13:45:40;180.60;;;166.40;;
38226;SDS011;24026;49.446;8.576;2023-09-12T13:48:02;179.60;;;165.27;;